Antlers, Colorado
Current Conditions -  °F | °C
As of 6:53 AM on Monday 22 Dec 2014 (Local Time) from KEEO Reporting Station
Overcast Overcast  
Wind Chill: 30°   Ceiling: 5500
Heat Index: 34°   Visibility: 10mi
Dew Point: 25°   Wind: 5mph
Humidity: 70%   Direction: 280°W
Pressure: 29.86"   Gusts: NA
Location:  39.7934°N, 108.135°W
Report Text: KEEO 221353Z AUTO 28004KT 10SM OVC055 01/M04 A2986 RMK AO2 SLP110 T00111039
Loading
Personal Weather Stations






























Interactive Weather Map New forecast layout! Learn more

10-Day Weather Forecast

Advertisements
Track Severe Weather on mobile